createdAt,value
2018-06-14T00:00:16.026Z,4.00
2018-06-14T00:01:16.047Z,4.00
2018-06-14T00:02:16.114Z,4.00
2018-06-14T00:03:16.075Z,4.00
2018-06-14T00:04:16.096Z,4.00
2018-06-14T00:05:16.110Z,4.00
2018-06-14T00:06:16.126Z,4.00
2018-06-14T00:07:16.140Z,4.00
2018-06-14T00:08:16.156Z,4.00
2018-06-14T00:09:16.178Z,4.00
2018-06-14T00:10:16.189Z,4.00
2018-06-14T00:11:16.202Z,4.00
2018-06-14T00:12:16.225Z,4.00
2018-06-14T00:13:16.241Z,4.00
2018-06-14T00:14:16.304Z,4.00
2018-06-14T00:15:16.269Z,4.00
2018-06-14T00:16:16.291Z,4.00
2018-06-14T00:17:16.300Z,4.00
2018-06-14T00:18:16.318Z,4.00
2018-06-14T00:19:16.409Z,4.00
2018-06-14T00:20:16.363Z,4.00
2018-06-14T00:21:16.374Z,4.00
2018-06-14T00:22:16.389Z,4.00
2018-06-14T00:23:16.404Z,4.00
2018-06-14T00:24:16.413Z,4.00
2018-06-14T00:25:16.468Z,4.00
2018-06-14T00:26:16.504Z,4.00
2018-06-14T00:27:16.469Z,4.00
2018-06-14T00:28:16.487Z,4.00
2018-06-14T00:29:16.497Z,4.00
2018-06-14T00:30:16.519Z,4.00
2018-06-14T00:31:16.532Z,4.00
2018-06-14T00:32:16.604Z,4.00
2018-06-14T00:33:16.562Z,4.00
2018-06-14T00:34:16.580Z,4.00
2018-06-14T00:35:16.598Z,4.00
2018-06-14T00:36:16.612Z,4.00
2018-06-14T00:37:16.630Z,4.00
2018-06-14T00:38:16.697Z,4.00
2018-06-14T00:39:16.664Z,4.00
2018-06-14T00:40:16.678Z,4.00
2018-06-14T00:41:16.691Z,4.00
2018-06-14T00:42:16.709Z,4.00
2018-06-14T00:43:16.814Z,4.00
2018-06-14T00:44:16.743Z,4.00
2018-06-14T00:45:16.756Z,4.00
2018-06-14T00:46:16.773Z,4.00
2018-06-14T00:47:16.792Z,4.00
2018-06-14T00:48:16.804Z,4.00
2018-06-14T00:49:16.873Z,4.00
2018-06-14T00:50:16.842Z,4.00
2018-06-14T00:51:16.856Z,4.00
2018-06-14T00:52:16.871Z,4.00
2018-06-14T00:53:16.887Z,4.00
2018-06-14T00:54:16.912Z,4.00
2018-06-14T00:55:16.986Z,4.00
2018-06-14T00:56:16.988Z,4.00
2018-06-14T00:57:16.957Z,4.00
2018-06-14T00:58:16.970Z,4.00
2018-06-14T00:59:16.985Z,4.00
2018-06-14T01:00:17.008Z,4.00
2018-06-14T01:01:17.037Z,4.00
2018-06-14T01:02:17.042Z,4.00
2018-06-14T01:03:17.053Z,4.00
2018-06-14T01:04:17.073Z,4.00
2018-06-14T01:05:17.082Z,4.00
2018-06-14T01:06:17.098Z,4.00
2018-06-14T01:07:17.150Z,4.00
2018-06-14T01:08:17.140Z,4.00
2018-06-14T01:09:17.154Z,4.00
2018-06-14T01:10:17.169Z,4.00
2018-06-14T01:11:17.185Z,4.00
2018-06-14T01:12:17.199Z,4.00
2018-06-14T01:13:17.218Z,4.00
2018-06-14T01:14:17.231Z,4.00
2018-06-14T01:15:17.245Z,4.00
2018-06-14T01:16:17.262Z,4.00
2018-06-14T01:17:17.283Z,4.00
2018-06-14T01:18:17.295Z,4.00
2018-06-14T01:19:17.390Z,4.00
2018-06-14T01:20:17.328Z,4.00
2018-06-14T01:21:17.344Z,4.00
2018-06-14T01:22:17.374Z,4.00
2018-06-14T01:23:17.378Z,4.00
2018-06-14T01:24:17.396Z,4.00
2018-06-14T01:25:17.457Z,4.00
2018-06-14T01:26:17.475Z,4.00
2018-06-14T01:27:17.440Z,4.00
2018-06-14T01:28:17.460Z,4.00
2018-06-14T01:29:17.479Z,4.00
2018-06-14T01:30:17.495Z,4.00
2018-06-14T01:31:17.585Z,4.00
2018-06-14T01:32:17.520Z,4.00
2018-06-14T01:33:17.539Z,4.00
2018-06-14T01:34:17.558Z,4.00
2018-06-14T01:35:17.567Z,4.00
2018-06-14T01:36:17.591Z,4.00
2018-06-14T01:37:17.622Z,4.00
2018-06-14T01:38:17.624Z,4.00
2018-06-14T01:39:17.639Z,4.00
2018-06-14T01:40:17.654Z,4.00
2018-06-14T01:41:17.668Z,4.00
2018-06-14T01:42:17.681Z,4.00
2018-06-14T01:43:17.697Z,4.00
2018-06-14T01:44:17.765Z,4.00
2018-06-14T01:45:17.733Z,4.00
2018-06-14T01:46:17.747Z,4.00
2018-06-14T01:47:17.764Z,4.00
2018-06-14T01:48:17.791Z,4.00
2018-06-14T01:49:17.800Z,4.00
2018-06-14T01:50:17.817Z,4.00
2018-06-14T01:51:17.828Z,4.00
2018-06-14T01:52:17.843Z,4.00
2018-06-14T01:53:17.860Z,4.00
2018-06-14T01:54:17.874Z,4.00
2018-06-14T01:55:17.896Z,4.00
2018-06-14T01:56:17.920Z,4.00
2018-06-14T01:57:17.928Z,4.00
2018-06-14T01:58:17.942Z,4.00
2018-06-14T01:59:17.960Z,4.00
2018-06-14T02:00:17.978Z,4.00
2018-06-14T02:01:17.985Z,4.00
2018-06-14T02:02:18.063Z,4.00
2018-06-14T02:03:18.019Z,4.00
2018-06-14T02:04:18.035Z,4.00
2018-06-14T02:05:18.054Z,4.00
2018-06-14T02:06:18.090Z,4.00
2018-06-14T02:07:18.088Z,4.00
2018-06-14T02:08:18.157Z,4.00
2018-06-14T02:09:18.119Z,4.00
2018-06-14T02:10:18.134Z,4.00
2018-06-14T02:11:18.152Z,4.00
2018-06-14T02:12:18.189Z,4.00
2018-06-14T02:13:18.184Z,4.00
2018-06-14T02:14:18.201Z,4.00
2018-06-14T02:15:18.210Z,4.00
2018-06-14T02:16:18.226Z,4.00
2018-06-14T02:17:18.258Z,4.00
2018-06-14T02:18:18.340Z,4.00
2018-06-14T02:19:18.278Z,4.00
2018-06-14T02:20:18.293Z,4.00
2018-06-14T02:21:18.311Z,4.00
2018-06-14T02:22:18.324Z,4.00
2018-06-14T02:23:18.341Z,4.00
2018-06-14T02:24:18.419Z,4.00
2018-06-14T02:25:18.374Z,4.00
2018-06-14T02:26:18.393Z,4.00
2018-06-14T02:27:18.410Z,4.00
2018-06-14T02:28:18.425Z,4.00
2018-06-14T02:29:18.436Z,4.00
2018-06-14T02:30:18.458Z,4.00
2018-06-14T02:31:18.471Z,4.00
2018-06-14T02:32:18.488Z,4.00
2018-06-14T02:33:18.499Z,4.00
2018-06-14T02:34:18.519Z,4.00
2018-06-14T02:35:18.531Z,4.00
2018-06-14T02:36:18.571Z,4.00
2018-06-14T02:37:18.621Z,4.00
2018-06-14T02:38:18.581Z,4.00
2018-06-14T02:39:18.604Z,4.00
2018-06-14T02:40:18.615Z,4.00
2018-06-14T02:41:18.632Z,4.00
2018-06-14T02:42:18.734Z,4.00
2018-06-14T02:43:18.711Z,4.00
2018-06-14T02:44:18.679Z,4.00
2018-06-14T02:45:18.696Z,4.00
2018-06-14T02:46:18.715Z,4.00
2018-06-14T02:47:18.729Z,4.00
2018-06-14T02:48:18.755Z,4.00
2018-06-14T02:49:18.812Z,4.00
2018-06-14T02:50:18.775Z,4.00
2018-06-14T02:51:18.789Z,4.00
2018-06-14T02:52:18.808Z,4.00
2018-06-14T02:53:18.825Z,4.00
2018-06-14T02:54:18.838Z,4.00
2018-06-14T02:55:18.854Z,4.00
2018-06-14T02:56:18.865Z,4.00
2018-06-14T02:57:18.883Z,4.00
2018-06-14T02:58:18.902Z,4.00
2018-06-14T02:59:18.963Z,4.00
2018-06-14T03:00:18.935Z,4.00
2018-06-14T03:01:18.949Z,4.00
2018-06-14T03:02:18.961Z,4.00
2018-06-14T03:03:18.986Z,4.00
2018-06-14T03:04:18.997Z,4.00
2018-06-14T03:05:19.017Z,4.00
2018-06-14T03:06:19.030Z,4.00
2018-06-14T03:07:19.105Z,4.00
2018-06-14T03:08:19.060Z,4.00
2018-06-14T03:09:19.076Z,4.00
2018-06-14T03:10:19.093Z,4.00
2018-06-14T03:11:19.106Z,4.00
2018-06-14T03:12:19.128Z,4.00
2018-06-14T03:13:19.191Z,4.00
2018-06-14T03:14:19.159Z,4.00
2018-06-14T03:15:19.169Z,4.00
2018-06-14T03:16:19.194Z,4.00
2018-06-14T03:17:19.204Z,4.00
2018-06-14T03:18:19.224Z,4.00
2018-06-14T03:19:19.237Z,4.00
2018-06-14T03:20:19.257Z,4.00
2018-06-14T03:21:19.270Z,4.00
2018-06-14T03:22:19.290Z,4.00
2018-06-14T03:23:19.298Z,4.00
2018-06-14T03:24:19.320Z,4.00
2018-06-14T03:25:19.337Z,4.00
2018-06-14T03:26:19.349Z,4.00
2018-06-14T03:27:19.365Z,4.00
2018-06-14T03:28:19.385Z,4.00
2018-06-14T03:29:19.401Z,4.00
2018-06-14T03:30:19.420Z,4.00
2018-06-14T03:31:19.433Z,4.00
2018-06-14T03:32:19.448Z,4.00
2018-06-14T03:33:19.460Z,4.00
2018-06-14T03:34:19.499Z,4.00
2018-06-14T03:35:19.496Z,4.00
2018-06-14T03:36:19.512Z,4.00
2018-06-14T03:37:19.527Z,4.00
2018-06-14T03:38:19.543Z,4.00
2018-06-14T03:39:19.562Z,4.00
2018-06-14T03:40:19.576Z,4.00
2018-06-14T03:41:19.588Z,4.00
2018-06-14T03:42:19.604Z,4.00
2018-06-14T03:43:19.626Z,4.00
2018-06-14T03:44:19.643Z,4.00
2018-06-14T03:45:19.659Z,4.00
2018-06-14T03:46:19.685Z,4.00
2018-06-14T03:47:19.686Z,4.00
2018-06-14T03:48:19.701Z,4.00
2018-06-14T03:49:19.720Z,4.00
2018-06-14T03:50:19.732Z,4.00
2018-06-14T03:51:19.752Z,4.00
2018-06-14T03:52:19.771Z,4.00
2018-06-14T03:53:19.781Z,4.00
2018-06-14T03:54:19.795Z,4.00
2018-06-14T03:55:19.816Z,4.00
2018-06-14T03:56:19.826Z,4.00
2018-06-14T03:57:19.846Z,4.00
2018-06-14T03:58:19.892Z,4.00
2018-06-14T03:59:19.874Z,4.00
2018-06-14T04:00:19.895Z,4.00
2018-06-14T04:01:19.912Z,4.00
2018-06-14T04:02:19.930Z,4.00
2018-06-14T04:03:19.940Z,4.00
2018-06-14T04:04:19.982Z,4.00
2018-06-14T04:05:19.969Z,4.00
2018-06-14T04:06:19.988Z,4.00
2018-06-14T04:07:20.054Z,4.00
2018-06-14T04:08:20.025Z,4.00
2018-06-14T04:09:20.042Z,4.00
2018-06-14T04:10:20.081Z,4.00
2018-06-14T04:11:20.072Z,4.00
2018-06-14T04:12:20.083Z,4.00
2018-06-14T04:13:20.151Z,4.00
2018-06-14T04:14:20.119Z,4.00
2018-06-14T04:15:20.133Z,4.00
2018-06-14T04:16:20.148Z,4.00
2018-06-14T04:17:20.167Z,4.00
2018-06-14T04:18:20.177Z,4.00
2018-06-14T04:19:20.202Z,4.00
2018-06-14T04:20:20.216Z,4.00
2018-06-14T04:21:20.235Z,4.00
2018-06-14T04:22:20.257Z,4.00
2018-06-14T04:23:20.261Z,4.00
2018-06-14T04:24:20.275Z,4.00
2018-06-14T04:25:20.291Z,4.00
2018-06-14T04:26:20.310Z,4.00
2018-06-14T04:27:20.332Z,4.00
2018-06-14T04:28:20.373Z,4.00
2018-06-14T04:29:20.352Z,4.00
2018-06-14T04:30:20.369Z,4.00
2018-06-14T04:31:20.386Z,4.00
2018-06-14T04:32:20.407Z,4.00
2018-06-14T04:33:20.423Z,4.00
2018-06-14T04:34:20.475Z,4.00
2018-06-14T04:35:20.453Z,4.00
2018-06-14T04:36:20.472Z,4.00
2018-06-14T04:37:20.485Z,0.00
2018-06-14T04:38:20.511Z,0.00
2018-06-14T04:39:20.555Z,0.00
2018-06-14T04:40:20.572Z,0.00
2018-06-14T04:41:20.548Z,0.00
2018-06-14T04:42:20.563Z,0.00
2018-06-14T04:43:20.593Z,4.00
2018-06-14T04:44:20.593Z,4.00
2018-06-14T04:45:20.610Z,4.00
2018-06-14T04:46:20.624Z,4.00
2018-06-14T04:47:20.646Z,4.00
2018-06-14T04:48:20.660Z,8.00
2018-06-14T04:49:20.726Z,4.00
2018-06-14T04:50:20.691Z,4.00
2018-06-14T04:51:20.706Z,4.00
2018-06-14T04:52:20.725Z,8.00
2018-06-14T04:53:20.743Z,8.00
2018-06-14T04:54:20.754Z,8.00
2018-06-14T04:55:20.776Z,8.00
2018-06-14T04:56:20.792Z,12.00
2018-06-14T04:57:20.807Z,12.00
2018-06-14T04:58:20.818Z,16.00
2018-06-14T04:59:20.831Z,20.00
2018-06-14T05:00:20.852Z,24.00
2018-06-14T05:01:20.865Z,28.00
2018-06-14T05:02:20.920Z,32.00
2018-06-14T05:03:20.901Z,36.00
2018-06-14T05:04:20.912Z,40.00
2018-06-14T05:05:20.929Z,44.00
2018-06-14T05:06:20.947Z,52.00
2018-06-14T05:07:21.016Z,56.00
2018-06-14T05:08:20.982Z,56.00
2018-06-14T05:09:20.990Z,64.00
2018-06-14T05:10:21.011Z,68.00
2018-06-14T05:11:21.028Z,76.00
2018-06-14T05:12:21.048Z,80.00
2018-06-14T05:13:21.057Z,92.00
2018-06-14T05:14:21.081Z,96.00
2018-06-14T05:15:21.090Z,108.00
2018-06-14T05:16:21.108Z,116.00
2018-06-14T05:17:21.121Z,128.00
2018-06-14T05:18:21.138Z,140.00
2018-06-14T05:19:21.156Z,152.00
2018-06-14T05:20:21.175Z,164.00
2018-06-14T05:21:21.187Z,180.00
2018-06-14T05:22:21.202Z,192.00
2018-06-14T05:23:21.223Z,204.00
2018-06-14T05:24:21.236Z,224.00
2018-06-14T05:25:21.300Z,240.00
2018-06-14T05:26:21.267Z,260.00
2018-06-14T05:27:21.284Z,272.00
2018-06-14T05:28:21.296Z,288.00
2018-06-14T05:29:21.315Z,296.00
2018-06-14T05:30:21.331Z,312.00
2018-06-14T05:31:21.399Z,332.00
2018-06-14T05:32:21.360Z,352.00
2018-06-14T05:33:21.378Z,376.00
2018-06-14T05:34:21.393Z,392.00
2018-06-14T05:35:21.415Z,412.00
2018-06-14T05:36:21.451Z,428.00
2018-06-14T05:37:21.491Z,444.00
2018-06-14T05:38:21.464Z,464.00
2018-06-14T05:39:21.476Z,484.00
2018-06-14T05:40:21.493Z,500.00
2018-06-14T05:41:21.505Z,516.00
2018-06-14T05:42:21.545Z,544.00
2018-06-14T05:43:21.538Z,572.00
2018-06-14T05:44:21.552Z,592.00
2018-06-14T05:45:21.576Z,624.00
2018-06-14T05:46:21.617Z,656.00
2018-06-14T05:47:21.604Z,676.00
2018-06-14T05:48:21.618Z,696.00
2018-06-14T05:49:21.637Z,724.00
2018-06-14T05:50:21.655Z,748.00
2018-06-14T05:51:21.667Z,768.00
2018-06-14T05:52:21.712Z,800.00
2018-06-14T05:53:21.699Z,820.00
2018-06-14T05:54:21.721Z,840.00
2018-06-14T05:55:21.730Z,876.00
2018-06-14T05:56:21.746Z,904.00
2018-06-14T05:57:21.760Z,928.00
2018-06-14T05:58:21.780Z,956.00
2018-06-14T05:59:21.796Z,980.00
2018-06-14T06:00:21.813Z,1004.00
2018-06-14T06:01:21.880Z,1032.00
2018-06-14T06:02:21.849Z,1056.00
2018-06-14T06:03:21.858Z,1080.00
2018-06-14T06:04:21.944Z,1112.00
2018-06-14T06:05:21.895Z,1148.00
2018-06-14T06:06:21.912Z,1172.00
2018-06-14T06:07:21.976Z,1204.00
2018-06-14T06:08:21.945Z,1232.00
2018-06-14T06:09:21.958Z,1268.00
2018-06-14T06:10:22.003Z,1300.00
2018-06-14T06:11:21.989Z,1332.00
2018-06-14T06:12:22.011Z,1364.00
2018-06-14T06:13:22.072Z,1396.00
2018-06-14T06:14:22.043Z,1428.00
2018-06-14T06:15:22.052Z,1464.00
2018-06-14T06:16:22.074Z,1496.00
2018-06-14T06:17:22.084Z,1516.00
2018-06-14T06:18:22.113Z,1544.00
2018-06-14T06:19:22.123Z,1580.00
2018-06-14T06:20:22.135Z,1632.00
2018-06-14T06:21:22.158Z,1680.00
2018-06-14T06:22:22.165Z,1712.00
2018-06-14T06:23:22.237Z,1760.00
2018-06-14T06:24:22.204Z,1800.00
2018-06-14T06:25:22.213Z,1848.00
2018-06-14T06:26:22.318Z,1940.00
2018-06-14T06:27:22.247Z,2040.00
2018-06-14T06:28:22.266Z,2180.00
2018-06-14T06:29:22.282Z,2332.00
2018-06-14T06:30:22.298Z,2580.00
2018-06-14T06:31:22.315Z,2872.00
2018-06-14T06:32:22.332Z,3208.00
2018-06-14T06:33:22.419Z,3544.00
2018-06-14T06:34:22.364Z,3832.00
2018-06-14T06:35:22.380Z,4060.00
2018-06-14T06:36:22.412Z,4220.00
2018-06-14T06:37:22.466Z,4360.00
2018-06-14T06:38:22.430Z,4420.00
2018-06-14T06:39:22.446Z,4460.00
2018-06-14T06:40:22.467Z,4524.00
2018-06-14T06:41:22.497Z,4484.00
2018-06-14T06:42:22.504Z,4664.00
2018-06-14T06:43:22.522Z,4828.00
2018-06-14T06:44:22.529Z,4976.00
2018-06-14T06:45:22.598Z,5052.00
2018-06-14T06:46:22.561Z,4972.00
2018-06-14T06:47:22.627Z,5044.00
2018-06-14T06:48:22.599Z,4916.00
2018-06-14T06:49:22.614Z,5196.00
2018-06-14T06:50:22.628Z,5256.00
2018-06-14T06:51:22.663Z,5488.00
2018-06-14T06:52:22.660Z,5684.00
2018-06-14T06:53:22.738Z,5764.00
2018-06-14T06:54:22.695Z,5712.00
2018-06-14T06:55:22.716Z,5876.00
2018-06-14T06:56:22.732Z,5988.00
2018-06-14T06:57:22.745Z,6068.00
2018-06-14T06:58:22.767Z,5980.00
2018-06-14T07:00:22.796Z,6008.00
2018-06-14T07:01:22.868Z,5932.00
2018-06-14T07:02:22.833Z,5976.00
2018-06-14T07:03:22.856Z,6240.00
2018-06-14T07:04:22.871Z,6324.00
2018-06-14T07:05:22.881Z,6452.00
2018-06-14T07:06:22.908Z,6528.00
2018-06-14T07:07:22.975Z,6600.00
2018-06-14T07:08:22.936Z,6544.00
2018-06-14T07:09:22.960Z,6624.00
2018-06-14T07:10:22.970Z,6532.00
2018-06-14T07:11:22.991Z,6312.00
2018-06-14T07:12:23.004Z,6192.00
2018-06-14T07:13:23.026Z,6380.00
2018-06-14T07:14:23.050Z,6672.00
2018-06-14T07:15:23.064Z,6680.00
2018-06-14T07:16:23.084Z,6740.00
2018-06-14T07:17:23.095Z,6188.00
2018-06-14T07:18:23.116Z,6588.00
2018-06-14T07:19:23.185Z,6904.00
2018-06-14T07:20:23.148Z,7012.00
2018-06-14T07:21:23.167Z,7208.00
2018-06-14T07:22:23.187Z,7216.00
2018-06-14T07:23:23.205Z,7428.00
2018-06-14T07:24:23.220Z,7044.00
2018-06-14T07:25:23.288Z,6496.00
2018-06-14T07:26:23.262Z,6812.00
2018-06-14T07:27:23.276Z,6928.00
2018-06-14T07:28:23.300Z,7016.00
2018-06-14T07:29:23.314Z,6856.00
2018-06-14T07:30:23.332Z,7344.00
2018-06-14T07:31:23.353Z,7408.00
2018-06-14T07:32:23.367Z,7484.00
2018-06-14T07:33:23.384Z,6704.00
2018-06-14T07:34:23.438Z,7548.00
2018-06-14T07:35:23.422Z,7744.00
2018-06-14T07:36:23.442Z,7552.00
2018-06-14T07:37:23.455Z,7584.00
2018-06-14T07:38:23.470Z,7812.00
2018-06-14T07:39:23.496Z,7340.00
2018-06-14T07:40:23.512Z,7852.00
2018-06-14T07:41:23.526Z,7828.00
2018-06-14T07:42:23.552Z,8336.00
2018-06-14T07:43:23.568Z,8364.00
2018-06-14T07:44:23.581Z,8496.00
2018-06-14T07:45:23.601Z,8560.00
2018-06-14T07:46:23.661Z,8488.00
2018-06-14T07:47:23.636Z,7892.00
2018-06-14T07:48:23.662Z,8244.00
2018-06-14T07:49:23.677Z,8132.00
2018-06-14T07:50:23.694Z,8516.00
2018-06-14T07:51:23.711Z,8724.00
2018-06-14T07:52:23.804Z,8720.00
2018-06-14T07:53:23.749Z,8780.00
2018-06-14T07:54:23.773Z,8916.00
2018-06-14T07:55:23.837Z,9212.00
2018-06-14T07:56:23.803Z,8440.00
2018-06-14T07:57:23.827Z,9276.00
2018-06-14T07:58:23.874Z,9512.00
2018-06-14T07:59:23.864Z,9856.00
2018-06-14T08:00:23.885Z,9696.00
2018-06-14T08:01:23.952Z,9652.00
2018-06-14T08:02:23.917Z,9580.00
2018-06-14T08:03:23.933Z,9520.00
2018-06-14T08:04:23.982Z,9516.00
2018-06-14T08:05:23.975Z,9684.00
2018-06-14T08:06:24.015Z,9824.00
2018-06-14T08:07:24.066Z,10032.00
2018-06-14T08:08:24.035Z,10020.00
2018-06-14T08:09:24.050Z,10056.00
2018-06-14T08:10:24.067Z,10044.00
2018-06-14T08:11:24.091Z,9964.00
2018-06-14T08:12:24.152Z,10096.00
2018-06-14T08:13:24.175Z,10312.00
2018-06-14T08:14:24.141Z,10252.00
2018-06-14T08:15:24.168Z,10136.00
2018-06-14T08:16:24.182Z,10080.00
2018-06-14T08:17:24.205Z,10112.00
2018-06-14T08:18:24.223Z,10256.00
2018-06-14T08:19:24.246Z,10296.00
2018-06-14T08:20:24.264Z,10512.00
2018-06-14T08:21:24.278Z,9952.00
2018-06-14T08:22:24.299Z,10468.00
2018-06-14T08:23:24.315Z,10576.00
2018-06-14T08:24:24.338Z,10508.00
2018-06-14T08:25:24.357Z,10584.00
2018-06-14T08:26:24.379Z,10620.00
2018-06-14T08:27:24.412Z,10704.00
2018-06-14T08:28:24.419Z,10584.00
2018-06-14T08:29:24.442Z,10740.00
2018-06-14T08:30:24.459Z,10936.00
2018-06-14T08:31:24.473Z,11060.00
2018-06-14T08:32:24.497Z,11144.00
2018-06-14T08:33:24.545Z,11164.00
2018-06-14T08:34:24.534Z,11000.00
2018-06-14T08:35:24.559Z,11284.00
2018-06-14T08:36:24.575Z,11316.00
2018-06-14T08:37:24.644Z,11360.00
2018-06-14T08:38:24.613Z,11376.00
2018-06-14T08:39:24.635Z,11376.00
2018-06-14T08:40:24.659Z,11480.00
2018-06-14T08:41:24.681Z,10852.00
2018-06-14T08:42:24.694Z,11232.00
2018-06-14T08:43:24.764Z,11332.00
2018-06-14T08:44:24.735Z,11628.00
2018-06-14T08:45:24.774Z,11628.00
2018-06-14T08:46:24.776Z,11772.00
2018-06-14T08:47:24.796Z,11848.00
2018-06-14T08:48:24.814Z,11940.00
2018-06-14T08:49:24.886Z,11992.00
2018-06-14T08:50:24.861Z,11944.00
2018-06-14T08:51:24.878Z,11940.00
2018-06-14T08:52:24.898Z,11956.00
2018-06-14T08:53:24.915Z,11976.00
2018-06-14T08:54:24.938Z,11992.00
2018-06-14T08:55:24.961Z,12040.00
2018-06-14T08:56:24.980Z,12148.00
2018-06-14T08:57:25.030Z,12164.00
2018-06-14T08:58:25.018Z,12068.00
2018-06-14T08:59:25.052Z,12108.00
2018-06-14T09:00:25.061Z,12152.00
2018-06-14T09:01:25.149Z,12248.00
2018-06-14T09:02:25.105Z,12240.00
2018-06-14T09:03:25.177Z,12280.00
2018-06-14T09:04:25.144Z,12264.00
2018-06-14T09:05:25.166Z,11260.00
2018-06-14T09:06:25.189Z,12364.00
2018-06-14T09:07:25.207Z,12388.00
2018-06-14T09:08:25.228Z,12436.00
2018-06-14T09:09:25.278Z,12472.00
2018-06-14T09:10:25.275Z,12012.00
2018-06-14T09:11:25.391Z,12188.00
2018-06-14T09:12:25.315Z,12388.00
2018-06-14T09:13:25.336Z,12424.00
2018-06-14T09:14:25.362Z,12328.00
2018-06-14T09:15:25.438Z,12276.00
2018-06-14T09:16:25.396Z,12584.00
2018-06-14T09:17:25.416Z,12724.00
2018-06-14T09:18:25.441Z,12668.00
2018-06-14T09:19:25.513Z,12620.00
2018-06-14T09:20:25.483Z,12588.00
2018-06-14T09:21:25.501Z,12836.00
2018-06-14T09:22:25.524Z,12760.00
2018-06-14T09:23:25.544Z,12804.00
2018-06-14T09:24:25.571Z,13084.00
2018-06-14T09:25:25.590Z,12700.00
2018-06-14T09:26:25.611Z,13128.00
2018-06-14T09:27:25.633Z,13264.00
2018-06-14T09:28:25.659Z,13300.00
2018-06-14T09:29:25.675Z,13248.00
2018-06-14T09:30:25.692Z,13304.00
2018-06-14T09:31:25.718Z,13428.00
2018-06-14T09:32:25.738Z,13268.00
2018-06-14T09:33:25.756Z,13324.00
2018-06-14T09:34:25.860Z,13368.00
2018-06-14T09:35:25.805Z,13100.00
2018-06-14T09:36:25.822Z,13324.00
2018-06-14T09:37:25.843Z,13500.00
2018-06-14T09:38:25.868Z,12864.00
2018-06-14T09:39:25.893Z,13396.00
2018-06-14T09:40:25.976Z,13548.00
2018-06-14T09:41:25.931Z,13500.00
2018-06-14T09:42:25.950Z,13492.00
2018-06-14T09:43:25.974Z,13452.00
2018-06-14T09:44:25.996Z,13428.00
2018-06-14T09:45:26.012Z,13072.00
2018-06-14T09:46:26.076Z,13276.00
2018-06-14T09:47:26.057Z,13616.00
2018-06-14T09:48:26.133Z,13344.00
2018-06-14T09:49:26.116Z,13564.00
2018-06-14T09:50:26.250Z,13248.00
2018-06-14T09:51:26.146Z,13040.00
2018-06-14T09:52:26.241Z,13768.00
2018-06-14T09:53:26.189Z,13764.00
2018-06-14T09:54:26.213Z,13660.00
2018-06-14T09:55:26.234Z,13660.00
2018-06-14T09:56:26.253Z,13816.00
2018-06-14T09:58:26.294Z,13424.00
2018-06-14T09:59:26.314Z,13444.00
2018-06-14T10:00:26.443Z,13420.00
2018-06-14T10:01:26.366Z,13944.00
2018-06-14T10:02:26.381Z,13808.00
2018-06-14T10:03:26.408Z,13364.00
2018-06-14T10:04:26.431Z,13096.00
2018-06-14T10:05:26.474Z,12984.00
2018-06-14T10:06:26.531Z,12824.00
2018-06-14T10:07:26.496Z,12848.00
2018-06-14T10:08:26.524Z,13604.00
2018-06-14T10:09:26.538Z,13784.00
2018-06-14T10:10:26.606Z,13644.00
2018-06-14T10:11:26.589Z,14172.00
2018-06-14T10:12:26.659Z,13976.00
2018-06-14T10:13:26.632Z,13520.00
2018-06-14T10:14:26.650Z,14020.00
2018-06-14T10:15:26.670Z,14344.00
2018-06-14T10:16:26.740Z,14524.00
2018-06-14T10:17:26.766Z,14276.00
2018-06-14T10:21:26.802Z,14736.00
2018-06-14T10:27:26.944Z,14112.00
2018-06-14T10:28:27.029Z,14364.00
2018-06-14T10:29:27.018Z,14760.00
2018-06-14T10:30:27.006Z,14692.00
2018-06-14T10:31:27.031Z,14652.00
2018-06-14T10:32:27.052Z,14688.00
2018-06-14T10:33:27.079Z,15040.00
2018-06-14T10:34:27.130Z,15104.00
2018-06-14T10:35:27.128Z,15072.00
2018-06-14T10:36:27.152Z,14628.00
2018-06-14T10:37:27.164Z,15072.00
2018-06-14T10:38:27.188Z,14688.00
2018-06-14T10:39:27.246Z,14532.00
2018-06-14T10:40:27.234Z,14496.00
2018-06-14T10:41:27.256Z,14204.00
2018-06-14T10:42:27.275Z,14384.00
2018-06-14T10:43:27.305Z,14412.00
2018-06-14T10:44:27.325Z,14068.00
2018-06-14T10:45:27.349Z,14020.00
2018-06-14T10:46:27.381Z,14552.00
2018-06-14T10:47:27.395Z,14556.00
2018-06-14T10:48:27.417Z,14528.00
2018-06-14T10:49:27.436Z,14440.00
2018-06-14T10:50:27.456Z,14584.00
2018-06-14T10:51:27.486Z,14556.00
2018-06-14T10:52:27.604Z,14392.00
2018-06-14T10:53:27.627Z,14792.00
2018-06-14T10:54:27.554Z,15232.00
2018-06-14T10:55:27.573Z,15168.00
2018-06-14T10:56:27.601Z,15584.00
2018-06-14T10:57:27.621Z,15648.00
2018-06-14T10:58:27.697Z,15712.00
2018-06-14T10:59:27.719Z,15712.00
2018-06-14T11:00:27.697Z,15744.00
2018-06-14T11:01:27.707Z,15744.00
2018-06-14T11:02:27.734Z,15744.00
2018-06-14T11:03:27.755Z,15488.00
2018-06-14T11:04:27.836Z,15520.00
2018-06-14T11:05:27.801Z,15456.00
2018-06-14T11:06:27.830Z,15648.00
2018-06-14T11:07:27.844Z,15584.00
2018-06-14T11:08:27.868Z,15520.00
2018-06-14T11:09:27.892Z,15584.00
2018-06-14T11:10:27.976Z,15232.00
2018-06-14T11:11:27.935Z,15264.00
2018-06-14T11:12:27.965Z,15200.00
2018-06-14T11:13:27.980Z,14568.00
2018-06-14T11:14:28.004Z,14796.00
2018-06-14T11:15:28.029Z,14280.00
2018-06-14T11:16:28.050Z,13872.00
2018-06-14T11:17:28.076Z,14644.00
2018-06-14T11:18:28.111Z,15168.00
2018-06-14T11:19:28.140Z,14776.00
2018-06-14T11:20:28.145Z,14280.00
2018-06-14T11:21:28.176Z,15424.00
2018-06-14T11:22:28.197Z,14216.00
2018-06-14T11:23:28.218Z,14044.00
2018-06-14T11:24:28.238Z,14792.00
2018-06-14T11:25:28.258Z,14484.00
2018-06-14T11:26:28.282Z,15072.00
2018-06-14T11:27:28.313Z,14648.00
2018-06-14T11:28:28.336Z,14812.00
2018-06-14T11:29:28.405Z,15424.00
2018-06-14T11:30:28.402Z,15616.00
2018-06-14T11:31:28.400Z,15392.00
2018-06-14T11:32:28.426Z,15840.00
2018-06-14T11:33:28.453Z,15520.00
2018-06-14T11:34:28.474Z,15264.00
2018-06-14T11:35:28.546Z,15488.00
2018-06-14T11:36:28.524Z,15360.00
2018-06-14T11:37:28.543Z,15168.00
2018-06-14T11:38:28.569Z,15136.00
2018-06-14T11:39:28.590Z,15424.00
2018-06-14T11:40:28.619Z,15744.00
2018-06-14T11:41:28.683Z,15872.00
2018-06-14T11:42:28.659Z,15360.00
2018-06-14T11:43:28.684Z,15232.00
2018-06-14T11:44:28.706Z,15104.00
2018-06-14T11:45:28.729Z,15136.00
2018-06-14T11:46:28.753Z,14808.00
2018-06-14T11:47:28.779Z,13916.00
2018-06-14T11:48:28.800Z,13812.00
2018-06-14T11:49:28.827Z,14336.00
2018-06-14T11:50:28.846Z,14548.00
2018-06-14T11:51:28.869Z,15232.00
2018-06-14T11:52:28.899Z,15360.00
2018-06-14T11:53:28.983Z,15712.00
2018-06-14T11:54:28.943Z,15552.00
2018-06-14T11:55:28.973Z,14296.00
2018-06-14T11:56:28.991Z,15328.00
2018-06-14T11:57:29.013Z,14440.00
2018-06-14T11:58:29.046Z,15040.00
2018-06-14T11:59:29.132Z,15168.00
2018-06-14T12:00:29.090Z,15360.00
2018-06-14T12:01:29.113Z,15232.00
2018-06-14T12:02:29.136Z,15392.00
2018-06-14T12:03:29.158Z,14568.00
2018-06-14T12:04:29.177Z,14808.00
2018-06-14T12:05:29.275Z,15360.00
2018-06-14T12:06:29.230Z,15456.00
2018-06-14T12:07:29.251Z,15520.00
2018-06-14T12:08:29.361Z,15168.00
2018-06-14T12:09:29.297Z,14764.00
2018-06-14T12:10:29.327Z,14432.00
2018-06-14T12:11:29.417Z,14736.00
2018-06-14T12:12:29.373Z,14776.00
2018-06-14T12:13:29.393Z,15040.00
2018-06-14T12:14:29.417Z,14716.00
2018-06-14T12:15:29.436Z,14652.00
2018-06-14T12:16:29.463Z,15456.00
2018-06-14T12:17:29.583Z,15200.00
2018-06-14T12:18:29.506Z,14188.00
2018-06-14T12:19:29.532Z,14380.00
2018-06-14T12:20:29.570Z,15008.00
2018-06-14T12:21:29.594Z,14808.00
2018-06-14T12:22:29.603Z,15648.00
2018-06-14T12:23:29.686Z,15648.00
2018-06-14T12:24:29.659Z,15328.00
2018-06-14T12:25:29.684Z,14584.00
2018-06-14T12:26:29.699Z,14188.00
2018-06-14T12:27:29.734Z,13796.00
2018-06-14T12:28:29.746Z,13952.00
2018-06-14T12:29:29.819Z,13804.00
2018-06-14T12:30:29.807Z,13612.00
2018-06-14T12:31:29.818Z,13840.00
2018-06-14T12:32:29.843Z,14384.00
2018-06-14T12:33:29.863Z,14128.00
2018-06-14T12:34:29.887Z,13392.00
2018-06-14T12:36:29.935Z,13928.00
2018-06-14T12:37:29.958Z,12944.00
2018-06-14T12:38:29.984Z,14584.00